createdAt,value
2023-01-17T00:00:19.299Z,100.00
2023-01-17T00:02:45.647Z,100.00
2023-01-17T00:05:12.370Z,100.00
2023-01-17T00:07:38.695Z,100.00
2023-01-17T00:10:04.941Z,100.00
2023-01-17T00:12:31.179Z,100.00
2023-01-17T00:14:57.472Z,100.00
2023-01-17T00:17:23.758Z,97.47
2023-01-17T00:19:49.983Z,97.17
2023-01-17T00:22:16.401Z,98.90
2023-01-17T00:24:42.710Z,99.22
2023-01-17T00:27:08.996Z,97.45
2023-01-17T00:29:35.244Z,97.03
2023-01-17T00:32:01.494Z,97.62
2023-01-17T00:34:27.811Z,94.70
2023-01-17T00:36:54.104Z,96.06
2023-01-17T00:39:20.376Z,99.07
2023-01-17T00:41:46.626Z,98.70
2023-01-17T00:44:12.869Z,100.00
2023-01-17T00:46:39.167Z,100.00
2023-01-17T00:49:05.429Z,100.00
2023-01-17T00:51:31.683Z,100.00
2023-01-17T00:53:57.944Z,100.00
2023-01-17T00:56:24.290Z,100.00
2023-01-17T00:58:50.557Z,100.00
2023-01-17T01:01:16.865Z,100.00
2023-01-17T01:03:43.298Z,100.00
2023-01-17T01:06:09.540Z,100.00
2023-01-17T01:08:35.794Z,100.00
2023-01-17T01:11:02.084Z,100.00
2023-01-17T01:13:28.405Z,100.00
2023-01-17T01:15:54.700Z,100.00
2023-01-17T01:18:21.035Z,100.00
2023-01-17T01:20:47.351Z,100.00
2023-01-17T01:23:13.601Z,100.00
2023-01-17T01:25:39.926Z,100.00
2023-01-17T01:28:06.240Z,100.00
2023-01-17T01:30:32.470Z,100.00
2023-01-17T01:32:58.774Z,100.00
2023-01-17T01:35:25.039Z,100.00
2023-01-17T01:37:51.288Z,100.00
2023-01-17T01:40:17.576Z,100.00
2023-01-17T01:42:44.529Z,100.00
2023-01-17T01:45:10.790Z,100.00
2023-01-17T01:47:37.041Z,100.00
2023-01-17T01:50:03.277Z,100.00
2023-01-17T01:52:29.538Z,100.00
2023-01-17T01:54:55.816Z,100.00
2023-01-17T01:57:22.075Z,100.00
2023-01-17T01:59:48.330Z,100.00
2023-01-17T02:02:14.637Z,100.00
2023-01-17T02:04:40.942Z,98.20
2023-01-17T02:07:07.184Z,99.92
2023-01-17T02:09:33.466Z,100.00
2023-01-17T02:11:59.731Z,100.00
2023-01-17T02:14:25.984Z,98.55
2023-01-17T02:16:52.327Z,97.75
2023-01-17T02:19:18.601Z,95.18
2023-01-17T02:21:45.241Z,90.65
2023-01-17T02:24:11.498Z,87.74
2023-01-17T02:26:37.763Z,88.19
2023-01-17T02:29:04.005Z,90.50
2023-01-17T02:31:30.327Z,92.15
2023-01-17T02:33:56.627Z,90.74
2023-01-17T02:36:22.921Z,88.06
2023-01-17T02:38:49.204Z,89.57
2023-01-17T02:41:15.491Z,86.69
2023-01-17T02:43:41.725Z,86.84
2023-01-17T02:46:09.814Z,85.52
2023-01-17T02:48:36.356Z,86.54
2023-01-17T02:51:02.618Z,85.76
2023-01-17T02:53:28.855Z,85.09
2023-01-17T02:55:55.172Z,86.78
2023-01-17T02:58:21.473Z,87.86
2023-01-17T03:00:47.827Z,87.63
2023-01-17T03:03:14.201Z,88.94
2023-01-17T03:05:40.480Z,85.86
2023-01-17T03:08:06.694Z,87.85
2023-01-17T03:10:33.033Z,86.73
2023-01-17T03:12:59.333Z,85.89
2023-01-17T03:15:25.582Z,86.51
2023-01-17T03:17:51.911Z,86.86
2023-01-17T03:20:18.188Z,85.31
2023-01-17T03:22:44.407Z,85.01
2023-01-17T03:25:10.699Z,84.06
2023-01-17T03:27:37.006Z,84.76
2023-01-17T03:30:03.241Z,84.16
2023-01-17T03:32:29.548Z,81.37
2023-01-17T03:34:55.815Z,84.04
2023-01-17T03:37:22.124Z,84.21
2023-01-17T03:39:48.439Z,84.70
2023-01-17T03:42:14.718Z,81.27
2023-01-17T03:44:40.967Z,79.84
2023-01-17T03:47:07.290Z,78.88
2023-01-17T03:49:33.565Z,79.98
2023-01-17T03:51:59.804Z,82.72
2023-01-17T03:54:26.106Z,84.21
2023-01-17T03:56:52.407Z,84.53
2023-01-17T03:59:18.682Z,83.86
2023-01-17T04:01:45.078Z,82.21
2023-01-17T04:04:11.488Z,81.00
2023-01-17T04:06:37.780Z,82.81
2023-01-17T04:09:04.083Z,83.90
2023-01-17T04:11:30.358Z,82.93
2023-01-17T04:13:56.669Z,83.12
2023-01-17T04:16:23.036Z,82.29
2023-01-17T04:18:49.361Z,83.23
2023-01-17T04:21:15.639Z,81.76
2023-01-17T04:23:41.883Z,82.39
2023-01-17T04:26:08.110Z,82.14
2023-01-17T04:28:34.438Z,81.26
2023-01-17T04:31:00.767Z,80.95
2023-01-17T04:33:27.054Z,76.28
2023-01-17T04:35:53.375Z,76.94
2023-01-17T04:38:19.665Z,78.87
2023-01-17T04:40:46.125Z,78.04
2023-01-17T04:43:12.472Z,78.91
2023-01-17T04:45:38.826Z,80.07
2023-01-17T04:48:05.105Z,80.67
2023-01-17T04:50:31.347Z,77.58
2023-01-17T04:52:57.566Z,75.01
2023-01-17T04:55:23.848Z,76.21
2023-01-17T04:57:50.094Z,75.14
2023-01-17T05:00:16.361Z,75.02
2023-01-17T05:02:42.681Z,74.90
2023-01-17T05:05:09.539Z,75.41
2023-01-17T05:07:36.009Z,75.10
2023-01-17T05:10:02.283Z,74.81
2023-01-17T05:12:28.589Z,75.78
2023-01-17T05:14:54.849Z,76.72
2023-01-17T05:17:21.092Z,78.20
2023-01-17T05:19:47.380Z,78.13
2023-01-17T05:22:13.708Z,75.75
2023-01-17T05:24:39.962Z,75.95
2023-01-17T05:27:06.299Z,74.78
2023-01-17T05:29:32.588Z,74.61
2023-01-17T05:31:58.844Z,75.65
2023-01-17T05:34:25.074Z,75.48
2023-01-17T05:36:51.339Z,75.98
2023-01-17T05:39:17.595Z,74.68
2023-01-17T05:41:43.908Z,74.40
2023-01-17T05:44:10.167Z,75.77
2023-01-17T05:46:36.430Z,75.63
2023-01-17T05:49:02.808Z,75.51
2023-01-17T05:51:29.107Z,75.83
2023-01-17T05:53:55.345Z,74.74
2023-01-17T05:56:21.577Z,76.10
2023-01-17T05:58:47.906Z,79.17
2023-01-17T06:01:14.229Z,76.42
2023-01-17T06:03:40.550Z,75.39
2023-01-17T06:06:06.862Z,77.50
2023-01-17T06:08:33.138Z,79.08
2023-01-17T06:10:59.397Z,80.28
2023-01-17T06:13:25.695Z,81.49
2023-01-17T06:15:51.999Z,80.77
2023-01-17T06:18:18.285Z,79.98
2023-01-17T06:20:44.682Z,80.34
2023-01-17T06:23:11.036Z,79.29
2023-01-17T06:25:37.316Z,76.39
2023-01-17T06:28:03.612Z,72.21
2023-01-17T06:30:29.907Z,74.24
2023-01-17T06:32:56.203Z,75.76
2023-01-17T06:35:22.571Z,75.94
2023-01-17T06:37:48.841Z,75.22
2023-01-17T06:40:15.103Z,76.51
2023-01-17T06:42:41.394Z,76.52
2023-01-17T06:45:07.756Z,76.98
2023-01-17T06:47:33.997Z,78.00
2023-01-17T06:50:00.341Z,77.41
2023-01-17T06:52:26.634Z,77.41
2023-01-17T06:54:52.867Z,76.03
2023-01-17T06:57:19.100Z,75.78
2023-01-17T06:59:45.422Z,76.88
2023-01-17T07:02:11.690Z,75.59
2023-01-17T07:04:37.957Z,76.02
2023-01-17T07:07:04.352Z,77.37
2023-01-17T07:09:33.229Z,77.96
2023-01-17T07:11:59.635Z,76.94
2023-01-17T07:14:26.043Z,77.95
2023-01-17T07:16:52.479Z,78.99
2023-01-17T07:19:18.874Z,78.28
2023-01-17T07:21:45.363Z,77.88
2023-01-17T07:24:11.780Z,79.37
2023-01-17T07:26:38.106Z,78.28
2023-01-17T07:29:04.504Z,80.03
2023-01-17T07:31:30.966Z,79.17
2023-01-17T07:33:57.322Z,77.20
2023-01-17T07:36:23.774Z,78.80
2023-01-17T07:38:51.127Z,78.31
2023-01-17T07:41:17.516Z,77.55
2023-01-17T07:43:43.887Z,77.48
2023-01-17T07:46:10.318Z,74.99
2023-01-17T07:48:36.732Z,74.71
2023-01-17T07:51:03.003Z,74.19
2023-01-17T07:53:29.457Z,74.30
2023-01-17T07:55:55.886Z,74.81
2023-01-17T07:58:22.226Z,75.69
2023-01-17T08:00:48.858Z,76.92
2023-01-17T08:03:15.380Z,80.17
2023-01-17T08:05:41.759Z,80.52
2023-01-17T08:08:08.328Z,79.26
2023-01-17T08:10:34.776Z,79.32
2023-01-17T08:13:01.184Z,81.03
2023-01-17T08:15:27.860Z,81.22
2023-01-17T08:17:54.276Z,83.69
2023-01-17T08:20:20.567Z,81.67
2023-01-17T08:22:47.048Z,83.17
2023-01-17T08:25:13.462Z,83.69
2023-01-17T08:27:39.829Z,87.00
2023-01-17T08:30:06.255Z,90.33
2023-01-17T08:32:32.535Z,91.75
2023-01-17T08:34:58.826Z,90.29
2023-01-17T08:37:25.145Z,89.95
2023-01-17T08:39:51.432Z,91.01
2023-01-17T08:42:17.696Z,93.33
2023-01-17T08:44:44.032Z,92.63
2023-01-17T08:47:10.354Z,93.24
2023-01-17T08:49:36.634Z,94.61
2023-01-17T08:52:02.876Z,95.79
2023-01-17T08:54:29.170Z,95.45
2023-01-17T08:56:55.459Z,96.54
2023-01-17T08:59:21.698Z,97.63
2023-01-17T09:01:48.035Z,97.67
2023-01-17T09:04:14.477Z,98.67
2023-01-17T09:06:40.760Z,100.00
2023-01-17T09:09:07.000Z,100.00
2023-01-17T09:11:33.333Z,100.00
2023-01-17T09:13:59.627Z,100.00
2023-01-17T09:16:25.912Z,99.72
2023-01-17T09:18:52.275Z,98.54
2023-01-17T09:21:18.554Z,98.12
2023-01-17T09:23:44.833Z,95.47
2023-01-17T09:26:11.169Z,94.30
2023-01-17T09:28:37.454Z,96.15
2023-01-17T09:31:03.698Z,97.23
2023-01-17T09:33:30.019Z,96.91
2023-01-17T09:35:56.275Z,95.18
2023-01-17T09:38:22.550Z,97.46
2023-01-17T09:40:49.003Z,96.57
2023-01-17T09:43:15.307Z,93.67
2023-01-17T09:45:41.592Z,90.33
2023-01-17T09:48:07.947Z,92.96
2023-01-17T09:50:34.254Z,94.23
2023-01-17T09:53:00.502Z,94.07
2023-01-17T09:55:26.951Z,93.54
2023-01-17T09:57:53.235Z,92.98
2023-01-17T10:00:19.501Z,91.92
2023-01-17T10:02:45.956Z,91.24
2023-01-17T10:05:12.381Z,92.65
2023-01-17T10:07:38.644Z,91.99
2023-01-17T10:10:05.000Z,91.19
2023-01-17T10:12:31.257Z,91.21
2023-01-17T10:14:57.524Z,89.85
2023-01-17T10:17:23.855Z,88.16
2023-01-17T10:19:50.155Z,86.57
2023-01-17T10:22:16.380Z,85.58
2023-01-17T10:24:42.809Z,87.49
2023-01-17T10:27:09.185Z,89.08
2023-01-17T10:29:35.459Z,90.47
2023-01-17T10:32:01.790Z,90.83
2023-01-17T10:34:28.095Z,86.29
2023-01-17T10:36:54.379Z,87.18
2023-01-17T10:39:20.698Z,89.24
2023-01-17T10:41:47.001Z,89.16
2023-01-17T10:44:13.235Z,87.94
2023-01-17T10:46:39.471Z,88.13
2023-01-17T10:49:05.711Z,88.59
2023-01-17T10:51:31.955Z,86.66
2023-01-17T10:54:00.068Z,86.39
2023-01-17T10:56:27.946Z,86.24
2023-01-17T10:58:54.206Z,87.36
2023-01-17T11:01:20.634Z,86.37
2023-01-17T11:03:47.047Z,83.67
2023-01-17T11:06:13.286Z,85.38
2023-01-17T11:08:39.603Z,82.01
2023-01-17T11:11:05.859Z,78.90
2023-01-17T11:13:32.092Z,78.13
2023-01-17T11:15:58.395Z,80.06
2023-01-17T11:18:24.672Z,81.35
2023-01-17T11:20:50.944Z,82.36
2023-01-17T11:23:17.243Z,82.66
2023-01-17T11:25:43.498Z,81.26
2023-01-17T11:28:09.743Z,79.87
2023-01-17T11:30:36.091Z,77.22
2023-01-17T11:33:02.439Z,76.78
2023-01-17T11:35:28.846Z,81.35
2023-01-17T11:37:55.247Z,80.20
2023-01-17T11:40:21.542Z,84.25
2023-01-17T11:42:47.778Z,84.65
2023-01-17T11:45:14.042Z,85.43
2023-01-17T11:47:40.302Z,83.86
2023-01-17T11:50:06.559Z,81.51
2023-01-17T11:52:32.919Z,79.02
2023-01-17T11:54:59.228Z,78.23
2023-01-17T11:57:25.497Z,77.50
2023-01-17T11:59:51.850Z,74.18
2023-01-17T12:02:18.147Z,75.40
2023-01-17T12:04:44.425Z,81.01
2023-01-17T12:07:10.669Z,77.44
2023-01-17T12:09:37.031Z,78.08
2023-01-17T12:12:04.448Z,78.47
2023-01-17T12:14:31.458Z,82.10
2023-01-17T12:16:57.800Z,83.42
2023-01-17T12:19:24.045Z,81.95
2023-01-17T12:21:50.312Z,80.97
2023-01-17T12:24:16.636Z,78.36
2023-01-17T12:26:42.956Z,80.28
2023-01-17T12:29:09.417Z,84.03
2023-01-17T12:31:35.803Z,87.65
2023-01-17T12:34:02.088Z,87.22
2023-01-17T12:36:28.347Z,86.07
2023-01-17T12:38:54.686Z,90.31
2023-01-17T12:41:20.997Z,92.96
2023-01-17T12:43:47.232Z,92.77
2023-01-17T12:46:13.567Z,90.08
2023-01-17T12:48:39.949Z,92.00
2023-01-17T12:51:06.219Z,92.73
2023-01-17T12:53:32.535Z,90.68
2023-01-17T12:55:58.785Z,89.15
2023-01-17T12:58:25.045Z,91.66
2023-01-17T13:00:51.516Z,91.47
2023-01-17T13:03:17.913Z,91.70
2023-01-17T13:05:44.156Z,96.59
2023-01-17T13:08:10.487Z,95.81
2023-01-17T13:10:36.787Z,93.86
2023-01-17T13:13:03.019Z,93.65
2023-01-17T13:15:29.331Z,96.67
2023-01-17T13:17:55.670Z,95.19
2023-01-17T13:20:21.939Z,96.21
2023-01-17T13:22:48.295Z,97.60
2023-01-17T13:25:14.608Z,96.98
2023-01-17T13:27:40.856Z,94.22
2023-01-17T13:30:07.167Z,94.55
2023-01-17T13:32:33.436Z,97.07
2023-01-17T13:35:01.021Z,89.53
2023-01-17T13:37:28.012Z,88.57
2023-01-17T13:39:54.344Z,94.67
2023-01-17T13:42:20.639Z,96.61
2023-01-17T13:44:46.891Z,97.21
2023-01-17T13:47:13.211Z,92.98
2023-01-17T13:49:39.494Z,93.01
2023-01-17T13:52:05.740Z,88.12
2023-01-17T13:54:32.046Z,92.38
2023-01-17T13:56:58.518Z,91.95
2023-01-17T13:59:24.824Z,93.06
2023-01-17T14:01:51.225Z,87.35
2023-01-17T14:04:17.656Z,88.09
2023-01-17T14:06:43.996Z,90.80
2023-01-17T14:09:11.322Z,96.13
2023-01-17T14:11:37.550Z,93.65
2023-01-17T14:14:03.851Z,94.51
2023-01-17T14:16:30.232Z,91.23
2023-01-17T14:18:56.566Z,89.57
2023-01-17T14:21:22.867Z,88.85
2023-01-17T14:23:49.164Z,86.82
2023-01-17T14:26:15.410Z,85.82
2023-01-17T14:28:41.701Z,91.79
2023-01-17T14:31:07.963Z,90.46
2023-01-17T14:33:34.222Z,94.02
2023-01-17T14:36:00.460Z,96.63
2023-01-17T14:38:26.966Z,96.79
2023-01-17T14:40:53.231Z,97.79
2023-01-17T14:43:19.487Z,100.00
2023-01-17T14:45:46.003Z,97.95
2023-01-17T14:48:12.291Z,97.60
2023-01-17T14:50:38.551Z,92.21
2023-01-17T14:53:04.844Z,91.84
2023-01-17T14:55:31.121Z,94.04
2023-01-17T14:57:57.349Z,91.92
2023-01-17T15:00:23.656Z,90.80
2023-01-17T15:02:50.002Z,88.70
2023-01-17T15:05:16.396Z,84.17
2023-01-17T15:07:43.821Z,88.37
2023-01-17T15:10:10.319Z,95.48
2023-01-17T15:12:36.824Z,100.00
2023-01-17T15:15:03.432Z,100.00
2023-01-17T15:17:32.640Z,100.00
2023-01-17T15:19:59.210Z,100.00
2023-01-17T15:22:25.604Z,98.12
2023-01-17T15:24:52.400Z,93.76
2023-01-17T15:27:19.083Z,95.11
2023-01-17T15:29:45.484Z,91.54
2023-01-17T15:32:11.785Z,93.94
2023-01-17T15:34:38.113Z,88.36
2023-01-17T15:37:04.429Z,92.96
2023-01-17T15:39:31.723Z,90.00
2023-01-17T15:41:58.040Z,95.42
2023-01-17T15:44:24.423Z,94.76
2023-01-17T15:46:50.728Z,93.18
2023-01-17T15:49:17.872Z,91.71
2023-01-17T15:51:44.323Z,90.94
2023-01-17T15:54:10.618Z,90.97
2023-01-17T15:56:36.848Z,88.20
2023-01-17T15:59:03.155Z,92.29
2023-01-17T16:01:29.598Z,96.33
2023-01-17T16:03:55.907Z,93.25
2023-01-17T16:06:22.218Z,96.31
2023-01-17T16:08:48.493Z,92.49
2023-01-17T16:11:14.722Z,89.79
2023-01-17T16:13:41.048Z,89.92
2023-01-17T16:16:09.764Z,91.00
2023-01-17T16:18:36.255Z,87.32
2023-01-17T16:21:02.556Z,85.75
2023-01-17T16:23:28.840Z,90.42
2023-01-17T16:25:55.060Z,94.46
2023-01-17T16:28:21.387Z,95.29
2023-01-17T16:30:47.656Z,94.66
2023-01-17T16:33:13.955Z,90.37
2023-01-17T16:35:40.405Z,91.20
2023-01-17T16:38:06.696Z,89.41
2023-01-17T16:40:32.930Z,87.11
2023-01-17T16:42:59.207Z,88.28
2023-01-17T16:45:25.524Z,85.33
2023-01-17T16:47:52.108Z,87.53
2023-01-17T16:50:18.505Z,86.17
2023-01-17T16:52:45.240Z,83.77
2023-01-17T16:55:11.543Z,85.26
2023-01-17T16:57:37.805Z,84.30
2023-01-17T17:00:04.113Z,84.53
2023-01-17T17:02:30.363Z,82.21
2023-01-17T17:04:56.630Z,82.78
2023-01-17T17:07:22.919Z,83.11
2023-01-17T17:09:49.192Z,89.40
2023-01-17T17:12:15.449Z,90.30
2023-01-17T17:14:41.871Z,90.95
2023-01-17T17:17:08.175Z,89.53
2023-01-17T17:19:34.418Z,85.11
2023-01-17T17:22:00.659Z,88.95
2023-01-17T17:24:26.922Z,88.50
2023-01-17T17:26:53.177Z,91.00
2023-01-17T17:29:19.484Z,93.69
2023-01-17T17:31:45.793Z,94.12
2023-01-17T17:34:12.037Z,92.05
2023-01-17T17:36:38.396Z,90.77
2023-01-17T17:39:04.745Z,90.52
2023-01-17T17:41:31.005Z,90.14
2023-01-17T17:43:57.324Z,89.07
2023-01-17T17:46:23.617Z,89.24
2023-01-17T17:48:49.874Z,89.42
2023-01-17T17:51:16.137Z,89.57
2023-01-17T17:53:42.440Z,89.28
2023-01-17T17:56:08.722Z,88.69
2023-01-17T17:58:34.960Z,86.29
2023-01-17T18:01:01.229Z,87.06
2023-01-17T18:03:27.498Z,87.86
2023-01-17T18:05:53.723Z,88.69
2023-01-17T18:08:20.027Z,85.14
2023-01-17T18:10:46.294Z,86.07
2023-01-17T18:13:12.548Z,85.83
2023-01-17T18:15:38.825Z,85.26
2023-01-17T18:18:05.103Z,85.53
2023-01-17T18:20:31.338Z,85.21
2023-01-17T18:22:57.746Z,84.07
2023-01-17T18:25:24.081Z,82.87
2023-01-17T18:27:50.339Z,83.29
2023-01-17T18:30:16.659Z,83.96
2023-01-17T18:32:42.939Z,85.47
2023-01-17T18:35:09.188Z,86.07
2023-01-17T18:37:35.430Z,84.00
2023-01-17T18:40:01.734Z,82.75
2023-01-17T18:42:28.072Z,83.45
2023-01-17T18:44:54.311Z,85.24
2023-01-17T18:47:20.629Z,86.99
2023-01-17T18:49:46.964Z,83.66
2023-01-17T18:52:13.201Z,86.50
2023-01-17T18:54:39.549Z,86.38
2023-01-17T18:57:05.871Z,84.70
2023-01-17T18:59:32.098Z,85.62
2023-01-17T19:01:58.402Z,87.65
2023-01-17T19:04:24.696Z,85.92
2023-01-17T19:06:51.401Z,86.54
2023-01-17T19:09:17.713Z,85.09
2023-01-17T19:11:43.970Z,85.30
2023-01-17T19:14:10.273Z,85.21
2023-01-17T19:16:36.632Z,85.26
2023-01-17T19:19:02.922Z,85.15
2023-01-17T19:21:29.178Z,82.14
2023-01-17T19:23:55.501Z,82.63
2023-01-17T19:26:21.780Z,84.54
2023-01-17T19:28:48.021Z,84.77
2023-01-17T19:31:14.367Z,85.07
2023-01-17T19:33:40.665Z,84.50
2023-01-17T19:36:06.905Z,85.99
2023-01-17T19:38:33.148Z,83.50
2023-01-17T19:40:59.391Z,83.94
2023-01-17T19:43:25.645Z,84.76
2023-01-17T19:45:52.057Z,83.05
2023-01-17T19:48:18.396Z,82.93
2023-01-17T19:50:44.676Z,82.15
2023-01-17T19:53:10.934Z,82.55
2023-01-17T19:55:37.225Z,82.73
2023-01-17T19:58:03.516Z,81.98
2023-01-17T20:00:30.474Z,80.78
2023-01-17T20:02:56.994Z,79.64
2023-01-17T20:05:23.515Z,79.32
2023-01-17T20:07:49.740Z,79.27
2023-01-17T20:10:15.989Z,81.62
2023-01-17T20:12:42.288Z,78.42
2023-01-17T20:15:08.529Z,76.86
2023-01-17T20:17:34.839Z,78.09
2023-01-17T20:20:01.125Z,78.93
2023-01-17T20:22:28.235Z,77.49
2023-01-17T20:24:54.561Z,77.40
2023-01-17T20:27:20.843Z,77.74
2023-01-17T20:29:47.089Z,74.02
2023-01-17T20:32:13.471Z,76.70
2023-01-17T20:34:39.782Z,76.20
2023-01-17T20:37:06.051Z,74.95
2023-01-17T20:39:32.426Z,76.01
2023-01-17T20:41:58.670Z,77.97
2023-01-17T20:44:24.954Z,78.46
2023-01-17T20:46:51.245Z,79.51
2023-01-17T20:49:17.666Z,79.13
2023-01-17T20:51:43.915Z,79.41
2023-01-17T20:54:10.235Z,78.63
2023-01-17T20:56:36.521Z,75.33
2023-01-17T20:59:02.777Z,76.08
2023-01-17T21:01:29.180Z,76.71
2023-01-17T21:03:55.513Z,76.35
2023-01-17T21:06:21.803Z,75.07
2023-01-17T21:08:48.093Z,76.55
2023-01-17T21:11:14.383Z,77.28
2023-01-17T21:13:40.612Z,77.49
2023-01-17T21:16:06.927Z,76.94
2023-01-17T21:18:33.244Z,76.36
2023-01-17T21:20:59.490Z,77.14
2023-01-17T21:23:25.784Z,76.24
2023-01-17T21:25:54.131Z,76.41
2023-01-17T21:28:21.767Z,73.43
2023-01-17T21:30:48.074Z,71.88
2023-01-17T21:33:14.368Z,74.02
2023-01-17T21:35:40.627Z,72.52
2023-01-17T21:38:06.901Z,71.86
2023-01-17T21:40:33.162Z,70.67
2023-01-17T21:42:59.396Z,73.00
2023-01-17T21:45:25.693Z,75.97
2023-01-17T21:47:51.979Z,75.53
2023-01-17T21:50:32.521Z,74.76
2023-01-17T21:52:59.574Z,73.50
2023-01-17T21:55:25.803Z,72.89
2023-01-17T21:57:52.048Z,69.71
2023-01-17T22:00:18.393Z,69.64
2023-01-17T22:02:44.684Z,70.32
2023-01-17T22:05:10.975Z,71.14
2023-01-17T22:07:37.323Z,70.90
2023-01-17T22:10:03.539Z,73.38
2023-01-17T22:12:29.775Z,75.19
2023-01-17T22:14:56.117Z,74.63
2023-01-17T22:17:22.361Z,74.97
2023-01-17T22:19:48.613Z,74.66
2023-01-17T22:22:14.887Z,76.33
2023-01-17T22:24:41.196Z,75.67
2023-01-17T22:27:07.432Z,73.71
2023-01-17T22:29:33.681Z,79.71
2023-01-17T22:31:59.984Z,83.59
2023-01-17T22:34:26.207Z,84.44
2023-01-17T22:36:52.514Z,83.82
2023-01-17T22:39:18.807Z,82.07
2023-01-17T22:41:45.028Z,82.18
2023-01-17T22:44:11.291Z,82.87
2023-01-17T22:46:37.627Z,77.74
2023-01-17T22:49:03.867Z,81.22
2023-01-17T22:51:30.138Z,80.05
2023-01-17T22:53:56.378Z,84.40
2023-01-17T22:56:22.645Z,83.98
2023-01-17T22:58:48.988Z,83.84
2023-01-17T23:01:16.563Z,80.47
2023-01-17T23:03:42.847Z,83.66
2023-01-17T23:06:09.135Z,82.21
2023-01-17T23:08:35.454Z,87.29
2023-01-17T23:11:01.691Z,90.06
2023-01-17T23:13:27.936Z,90.26
2023-01-17T23:15:55.910Z,89.18
2023-01-17T23:18:22.168Z,88.81
2023-01-17T23:20:48.407Z,91.29
2023-01-17T23:23:14.731Z,87.51
2023-01-17T23:25:40.963Z,91.16
2023-01-17T23:28:07.232Z,88.25
2023-01-17T23:30:33.592Z,90.75
2023-01-17T23:33:00.215Z,92.66
2023-01-17T23:35:26.676Z,92.07
2023-01-17T23:37:53.027Z,93.91
2023-01-17T23:40:19.248Z,94.58
2023-01-17T23:42:45.491Z,94.41
2023-01-17T23:45:11.849Z,96.49
2023-01-17T23:47:38.079Z,96.84
2023-01-17T23:50:04.300Z,97.51
2023-01-17T23:52:30.619Z,96.13
2023-01-17T23:54:56.865Z,97.10
2023-01-17T23:57:23.111Z,96.07
2023-01-17T23:59:49.436Z,97.27
